KOGA

Searle Field Airport

Ogallala, Nebraska, USA
METAR KOGA 202335Z AUTO 03005KT 10SM CLR 23/04 A3016 RMK AO2 T02340044
Observed Flight Rules
Aug-20 @ 23:35 UTC (34 minutes ago) Visual Flight Rules
Wind Visibility Clouds
30° at 5 knots 10 miles
  • Clear skies
Temperatures Readings
Current 23°C / 73°F
Dewpoint 4°C / 39°F
Humidity 29%
Altimeter 30.16" Hg
Pressure 1021 hPa
Elevation 999
METAR KOGA 202335Z AUTO 03005KT 10SM CLR 23/04 A3016 RMK AO2 T02340044
Observed Flight Rules
Aug-20 @ 23:35 UTC
(34 minutes ago)
VFR
Wind Visibility
30° at 5 knots 10 miles
Clouds
  • Clear skies
Temperature Dewpoint
23°C / 73°F 4°C / 39°F
Humidity Altimeter Pressure
29% 30.16" Hg 1021 hPa